createdAt,value
2018-04-08T00:01:07.427Z,100979.84
2018-04-08T00:03:35.784Z,100981.83
2018-04-08T00:06:04.218Z,100977.73
2018-04-08T00:08:31.798Z,100974.77
2018-04-08T00:10:59.382Z,100966.95
2018-04-08T00:13:27.013Z,100968.01
2018-04-08T00:15:54.593Z,100973.76
2018-04-08T00:18:22.172Z,100968.72
2018-04-08T00:20:49.750Z,100970.24
2018-04-08T00:23:17.331Z,100968.37
2018-04-08T00:25:44.946Z,100963.98
2018-04-08T00:28:13.435Z,100960.57
2018-04-08T00:30:41.932Z,100959.43
2018-04-08T00:33:09.512Z,100961.50
2018-04-08T00:35:38.000Z,100961.11
2018-04-08T00:38:06.359Z,100959.17
2018-04-08T00:40:33.935Z,100958.11
2018-04-08T00:43:02.297Z,100954.70
2018-04-08T00:45:30.676Z,100953.42
2018-04-08T00:47:58.276Z,100952.71
2018-04-08T00:50:25.860Z,100947.08
2018-04-08T00:52:54.379Z,100945.86
2018-04-08T00:55:22.731Z,100942.65
2018-04-08T00:57:51.130Z,100942.23
2018-04-08T01:00:19.424Z,100939.66
2018-04-08T01:02:47.819Z,100939.14
2018-04-08T01:05:16.172Z,100936.91
2018-04-08T01:07:44.578Z,100940.12
2018-04-08T01:10:12.638Z,100929.55
2018-04-08T01:12:41.125Z,100934.96
2018-04-08T01:15:09.503Z,100931.03
2018-04-08T01:17:37.863Z,100931.61
2018-04-08T01:20:05.477Z,100928.36
2018-04-08T01:22:33.059Z,100924.64
2018-04-08T01:25:00.669Z,100923.25
2018-04-08T01:27:28.288Z,100923.38
2018-04-08T01:29:55.887Z,100918.31
2018-04-08T01:32:23.491Z,100914.46
2018-04-08T01:34:51.076Z,100909.95
2018-04-08T01:37:18.703Z,100911.17
2018-04-08T01:39:46.280Z,100904.08
2018-04-08T01:42:14.774Z,100909.06
2018-04-08T01:44:42.367Z,100901.84
2018-04-08T01:47:09.983Z,100903.98
2018-04-08T01:49:37.570Z,100906.06
2018-04-08T01:52:05.193Z,100904.32
2018-04-08T01:54:32.803Z,100901.80
2018-04-08T01:57:00.391Z,100885.31
2018-04-08T01:59:28.011Z,100882.48
2018-04-08T02:01:55.592Z,100887.25
2018-04-08T02:04:23.201Z,100888.54
2018-04-08T02:06:50.819Z,100885.71
2018-04-08T02:09:18.404Z,100885.69
2018-04-08T02:11:45.985Z,100888.21
2018-04-08T02:14:13.560Z,100885.58
2018-04-08T02:16:41.170Z,100890.95
2018-04-08T02:19:08.752Z,100894.53
2018-04-08T02:21:36.331Z,100891.86
2018-04-08T02:24:03.915Z,100894.92
2018-04-08T02:26:31.527Z,100893.75
2018-04-08T02:28:59.099Z,100894.07
2018-04-08T02:31:26.707Z,100900.06
2018-04-08T02:33:54.344Z,100896.73
2018-04-08T02:36:21.920Z,100904.67
2018-04-08T02:38:49.495Z,100904.98
2018-04-08T02:41:17.077Z,100905.88
2018-04-08T02:43:44.659Z,100902.38
2018-04-08T02:46:12.242Z,100905.71
2018-04-08T02:48:39.812Z,100901.33
2018-04-08T02:51:07.424Z,100898.21
2018-04-08T02:53:35.012Z,100908.55
2018-04-08T02:56:02.588Z,100896.09
2018-04-08T02:58:30.166Z,100895.91
2018-04-08T03:00:57.740Z,100904.88
2018-04-08T03:03:25.323Z,100906.65
2018-04-08T03:05:52.909Z,100911.42
2018-04-08T03:08:20.499Z,100906.66
2018-04-08T03:10:48.082Z,100906.66
2018-04-08T03:13:15.693Z,100909.19
2018-04-08T03:15:43.272Z,100902.55
2018-04-08T03:18:10.843Z,100903.46
2018-04-08T03:20:38.423Z,100898.86
2018-04-08T03:23:06.006Z,100898.92
2018-04-08T03:25:33.597Z,100894.32
2018-04-08T03:28:01.171Z,100895.59
2018-04-08T03:30:28.752Z,100894.48
2018-04-08T03:32:56.331Z,100894.67
2018-04-08T03:35:23.915Z,100888.83
2018-04-08T03:37:51.498Z,100891.33
2018-04-08T03:40:19.116Z,100894.09
2018-04-08T03:42:46.690Z,100892.36
2018-04-08T03:45:14.267Z,100896.28
2018-04-08T03:47:41.848Z,100903.23
2018-04-08T03:50:09.428Z,100898.89
2018-04-08T03:52:37.013Z,100895.32
2018-04-08T03:55:04.591Z,100889.09
2018-04-08T03:57:32.172Z,100889.17
2018-04-08T03:59:59.760Z,100892.53
2018-04-08T04:02:27.339Z,100891.73
2018-04-08T04:04:54.920Z,100889.23
2018-04-08T04:07:22.497Z,100894.54
2018-04-08T04:09:50.071Z,100893.18
2018-04-08T04:12:17.686Z,100891.09
2018-04-08T04:14:45.258Z,100892.95
2018-04-08T04:17:12.870Z,100896.53
2018-04-08T04:19:52.200Z,100890.63
2018-04-08T04:22:31.582Z,100893.04
2018-04-08T04:25:10.709Z,100889.54
2018-04-08T04:27:38.294Z,100885.16
2018-04-08T04:30:05.899Z,100889.29
2018-04-08T04:32:33.507Z,100883.76
2018-04-08T04:35:01.127Z,100885.67
2018-04-08T04:37:28.703Z,100879.17
2018-04-08T04:39:57.052Z,100884.13
2018-04-08T04:42:24.664Z,100884.05
2018-04-08T04:44:52.278Z,100890.05
2018-04-08T04:47:19.887Z,100883.99
2018-04-08T04:49:47.686Z,100879.74
2018-04-08T04:52:15.402Z,100890.38
2018-04-08T04:54:43.032Z,100885.53
2018-04-08T04:57:10.643Z,100887.02
2018-04-08T04:59:38.219Z,100896.09
2018-04-08T05:02:05.823Z,100886.70
2018-04-08T05:04:33.404Z,100885.33
2018-04-08T05:07:01.028Z,100881.53
2018-04-08T05:09:28.606Z,100878.03
2018-04-08T05:11:56.284Z,100882.53
2018-04-08T05:14:23.935Z,100882.88
2018-04-08T05:16:51.507Z,100881.53
2018-04-08T05:19:19.113Z,100882.69
2018-04-08T05:21:46.686Z,100880.38
2018-04-08T05:24:14.290Z,100880.27
2018-04-08T05:26:41.876Z,100875.08
2018-04-08T05:29:09.491Z,100878.91
2018-04-08T05:31:37.084Z,100875.14
2018-04-08T05:34:04.687Z,100874.17
2018-04-08T05:36:32.268Z,100869.59
2018-04-08T05:38:59.888Z,100877.28
2018-04-08T05:41:27.471Z,100872.06
2018-04-08T05:43:55.054Z,100877.55
2018-04-08T05:46:22.664Z,100872.37
2018-04-08T05:48:50.242Z,100879.89
2018-04-08T05:51:17.846Z,100871.22
2018-04-08T05:53:45.435Z,100873.23
2018-04-08T05:56:13.015Z,100877.98
2018-04-08T05:58:40.633Z,100869.04
2018-04-08T06:01:08.220Z,100863.80
2018-04-08T06:03:35.814Z,100871.77
2018-04-08T06:06:03.398Z,100871.02
2018-04-08T06:08:30.984Z,100867.73
2018-04-08T06:10:58.563Z,100869.57
2018-04-08T06:13:26.145Z,100866.44
2018-04-08T06:15:53.727Z,100874.44
2018-04-08T06:18:21.308Z,100868.86
2018-04-08T06:20:48.896Z,100872.49
2018-04-08T06:23:16.474Z,100865.52
2018-04-08T06:25:44.101Z,100862.55
2018-04-08T06:28:11.687Z,100865.33
2018-04-08T06:30:39.276Z,100859.35
2018-04-08T06:33:06.872Z,100857.05
2018-04-08T06:35:34.491Z,100854.08
2018-04-08T06:38:02.121Z,100852.95
2018-04-08T06:40:29.724Z,100848.03
2018-04-08T06:42:57.330Z,100848.36
2018-04-08T06:45:24.979Z,100848.18
2018-04-08T06:47:52.590Z,100847.91
2018-04-08T06:50:20.197Z,100846.28
2018-04-08T06:52:47.793Z,100846.33
2018-04-08T06:55:15.376Z,100849.63
2018-04-08T06:57:42.951Z,100854.51
2018-04-08T07:00:10.596Z,100857.45
2018-04-08T07:02:38.186Z,100841.69
2018-04-08T07:05:05.801Z,100850.61
2018-04-08T07:07:33.422Z,100852.47
2018-04-08T07:10:01.015Z,100845.68
2018-04-08T07:12:28.603Z,100848.92
2018-04-08T07:14:57.002Z,100850.10
2018-04-08T07:17:24.659Z,100852.17
2018-04-08T07:19:52.239Z,100847.63
2018-04-08T07:22:19.819Z,100843.16
2018-04-08T07:24:47.508Z,100846.67
2018-04-08T07:27:15.119Z,100844.17
2018-04-08T07:29:42.732Z,100843.51
2018-04-08T07:32:10.315Z,100835.84
2018-04-08T07:34:37.923Z,100841.54
2018-04-08T07:37:05.507Z,100847.14
2018-04-08T07:39:33.131Z,100839.93
2018-04-08T07:42:00.740Z,100836.91
2018-04-08T07:44:28.354Z,100841.61
2018-04-08T07:46:55.939Z,100839.74
2018-04-08T07:49:23.607Z,100846.22
2018-04-08T07:51:51.192Z,100842.91
2018-04-08T07:54:18.803Z,100837.78
2018-04-08T07:56:46.418Z,100834.48
2018-04-08T07:59:14.080Z,100841.16
2018-04-08T08:01:41.716Z,100838.08
2018-04-08T08:04:09.299Z,100837.88
2018-04-08T08:06:36.888Z,100836.62
2018-04-08T08:09:04.636Z,100826.98
2018-04-08T08:11:32.211Z,100823.36
2018-04-08T08:13:59.823Z,100822.39
2018-04-08T08:16:27.409Z,100828.95
2018-04-08T08:18:55.107Z,100828.09
2018-04-08T08:21:22.691Z,100816.70
2018-04-08T08:23:50.308Z,100810.55
2018-04-08T08:26:17.906Z,100821.08
2018-04-08T08:28:45.759Z,100824.16
2018-04-08T08:31:13.375Z,100818.28
2018-04-08T08:33:40.958Z,100829.47
2018-04-08T08:36:08.567Z,100820.47
2018-04-08T08:38:36.146Z,100823.50
2018-04-08T08:41:03.750Z,100821.20
2018-04-08T08:43:31.335Z,100823.07
2018-04-08T08:45:58.938Z,100822.33
2018-04-08T08:48:26.525Z,100821.02
2018-04-08T08:50:54.107Z,100819.31
2018-04-08T08:53:21.687Z,100807.30
2018-04-08T08:55:49.280Z,100809.42
2018-04-08T08:58:16.890Z,100801.84
2018-04-08T09:00:44.471Z,100803.34
2018-04-08T09:03:12.079Z,100794.17
2018-04-08T09:05:39.667Z,100796.35
2018-04-08T09:08:07.346Z,100797.59
2018-04-08T09:10:35.103Z,100787.28
2018-04-08T09:13:02.687Z,100788.30
2018-04-08T09:15:30.263Z,100784.53
2018-04-08T09:17:57.842Z,100791.34
2018-04-08T09:20:32.751Z,100781.03
2018-04-08T09:26:03.604Z,100793.56
2018-04-08T09:28:31.187Z,100795.74
2018-04-08T09:30:58.768Z,100791.20
2018-04-08T09:33:26.382Z,100783.02
2018-04-08T09:35:53.964Z,100783.53
2018-04-08T09:38:21.688Z,100784.32
2018-04-08T09:40:49.275Z,100772.19
2018-04-08T09:43:16.854Z,100770.41
2018-04-08T09:45:44.443Z,100781.38
2018-04-08T09:48:12.029Z,100769.13
2018-04-08T09:50:39.654Z,100758.53
2018-04-08T09:53:07.235Z,100762.86
2018-04-08T09:55:34.820Z,100764.50
2018-04-08T09:58:03.029Z,100759.44
2018-04-08T10:00:36.359Z,100751.23
2018-04-08T10:06:04.683Z,100744.93
2018-04-08T10:08:32.365Z,100746.74
2018-04-08T10:10:59.974Z,100748.97
2018-04-08T10:13:27.552Z,100743.49
2018-04-08T10:15:55.132Z,100744.76
2018-04-08T10:18:22.724Z,100740.42
2018-04-08T10:20:50.906Z,100733.13
2018-04-08T10:23:18.500Z,100736.77
2018-04-08T10:25:46.164Z,100730.80
2018-04-08T10:28:13.775Z,100723.17
2018-04-08T10:30:41.356Z,100731.22
2018-04-08T10:33:08.936Z,100726.95
2018-04-08T10:35:37.079Z,100726.73
2018-04-08T10:38:04.684Z,100726.62
2018-04-08T10:40:32.276Z,100716.77
2018-04-08T10:42:59.863Z,100716.00
2018-04-08T10:45:27.439Z,100711.79
2018-04-08T10:47:55.025Z,100709.15
2018-04-08T10:50:22.647Z,100712.81
2018-04-08T10:52:50.231Z,100709.77
2018-04-08T10:55:17.840Z,100701.62
2018-04-08T10:57:45.421Z,100714.89
2018-04-08T11:00:13.069Z,100697.50
2018-04-08T11:02:40.652Z,100691.55
2018-04-08T11:05:08.364Z,100694.34
2018-04-08T11:07:35.983Z,100696.66
2018-04-08T11:10:04.535Z,100687.98
2018-04-08T11:12:32.218Z,100694.73
2018-04-08T11:14:59.799Z,100687.69
2018-04-08T11:17:27.370Z,100689.35
2018-04-08T11:19:54.956Z,100681.95
2018-04-08T11:22:22.615Z,100682.05
2018-04-08T11:24:50.221Z,100687.05
2018-04-08T11:27:17.836Z,100674.00
2018-04-08T11:29:45.424Z,100678.25
2018-04-08T11:32:13.057Z,100673.52
2018-04-08T11:34:40.674Z,100675.20
2018-04-08T11:37:08.319Z,100679.91
2018-04-08T11:39:35.978Z,100676.20
2018-04-08T11:42:04.272Z,100672.92
2018-04-08T11:44:31.861Z,100676.53
2018-04-08T11:46:59.480Z,100676.25
2018-04-08T11:49:27.056Z,100664.73
2018-04-08T11:51:54.675Z,100659.11
2018-04-08T11:54:22.634Z,100663.59
2018-04-08T11:56:50.293Z,100658.34
2018-04-08T11:59:17.863Z,100655.34
2018-04-08T12:01:45.568Z,100659.76
2018-04-08T12:04:13.147Z,100657.96
2018-04-08T12:06:40.757Z,100654.83
2018-04-08T12:09:08.349Z,100650.13
2018-04-08T12:11:35.975Z,100656.19
2018-04-08T12:14:03.553Z,100656.77
2018-04-08T12:16:31.136Z,100642.78
2018-04-08T12:18:58.719Z,100643.42
2018-04-08T12:21:26.308Z,100639.88
2018-04-08T12:23:53.880Z,100632.80
2018-04-08T12:26:21.462Z,100642.45
2018-04-08T12:28:49.052Z,100637.98
2018-04-08T12:31:16.683Z,100648.92
2018-04-08T12:33:44.247Z,100634.20
2018-04-08T12:36:11.826Z,100634.06
2018-04-08T12:38:39.435Z,100633.31
2018-04-08T12:41:07.016Z,100632.76
2018-04-08T12:43:34.671Z,100626.58
2018-04-08T12:46:02.252Z,100632.90
2018-04-08T12:48:29.901Z,100625.74
2018-04-08T12:50:57.485Z,100624.91
2018-04-08T12:53:25.238Z,100623.23
2018-04-08T12:55:52.844Z,100626.52
2018-04-08T12:58:20.483Z,100617.28
2018-04-08T13:00:48.113Z,100614.59
2018-04-08T13:03:15.778Z,100609.36
2018-04-08T13:05:43.359Z,100596.70
2018-04-08T13:08:10.928Z,100608.02
2018-04-08T13:10:39.062Z,100588.88
2018-04-08T13:13:06.649Z,100582.42
2018-04-08T13:15:34.244Z,100582.72
2018-04-08T13:18:01.828Z,100571.80
2018-04-08T13:20:29.406Z,100572.72
2018-04-08T13:22:57.076Z,100565.87
2018-04-08T13:25:24.661Z,100573.47
2018-04-08T13:27:52.260Z,100581.12
2018-04-08T13:30:19.840Z,100577.05
2018-04-08T13:32:47.425Z,100565.89
2018-04-08T13:35:15.242Z,100569.41
2018-04-08T13:37:42.824Z,100571.78
2018-04-08T13:40:10.410Z,100561.80
2018-04-08T13:42:38.025Z,100553.64
2018-04-08T13:45:05.612Z,100554.34
2018-04-08T13:47:33.219Z,100549.63
2018-04-08T13:50:01.758Z,100550.53
2018-04-08T13:52:29.363Z,100556.75
2018-04-08T13:54:57.043Z,100553.91
2018-04-08T13:57:24.656Z,100545.90
2018-04-08T13:59:52.329Z,100545.98
2018-04-08T14:02:19.947Z,100546.91
2018-04-08T14:04:47.533Z,100537.88
2018-04-08T14:07:15.116Z,100539.12
2018-04-08T14:09:42.731Z,100534.29
2018-04-08T14:12:10.312Z,100536.91
2018-04-08T14:14:37.899Z,100527.98
2018-04-08T14:17:06.353Z,100531.01
2018-04-08T14:19:33.943Z,100524.63
2018-04-08T14:22:01.604Z,100524.67
2018-04-08T14:24:29.255Z,100524.58
2018-04-08T14:26:56.936Z,100515.66
2018-04-08T14:29:24.549Z,100516.79
2018-04-08T14:31:52.139Z,100521.41
2018-04-08T14:34:19.727Z,100520.97
2018-04-08T14:36:47.314Z,100517.47
2018-04-08T14:39:14.938Z,100511.52
2018-04-08T14:41:42.604Z,100511.48
2018-04-08T14:44:10.189Z,100512.55
2018-04-08T14:46:37.787Z,100507.43
2018-04-08T14:49:06.415Z,100508.52
2018-04-08T14:51:34.003Z,100500.44
2018-04-08T14:54:01.689Z,100494.80
2018-04-08T14:56:29.300Z,100501.58
2018-04-08T14:58:56.883Z,100502.38
2018-04-08T15:01:24.475Z,100496.45
2018-04-08T15:03:52.059Z,100495.79
2018-04-08T15:06:19.847Z,100498.20
2018-04-08T15:08:47.448Z,100495.25
2018-04-08T15:11:15.066Z,100496.84
2018-04-08T15:13:42.658Z,100490.45
2018-04-08T15:16:10.278Z,100487.03
2018-04-08T15:18:37.871Z,100487.17
2018-04-08T15:21:05.453Z,100481.28
2018-04-08T15:23:33.131Z,100484.06
2018-04-08T15:26:00.710Z,100472.77
2018-04-08T15:28:28.293Z,100469.61
2018-04-08T15:30:55.878Z,100467.56
2018-04-08T15:33:23.476Z,100468.03
2018-04-08T15:35:51.072Z,100466.48
2018-04-08T15:38:18.753Z,100464.55
2018-04-08T15:40:46.349Z,100456.94
2018-04-08T15:43:13.936Z,100455.66
2018-04-08T15:45:41.514Z,100466.59
2018-04-08T15:48:09.145Z,100465.48
2018-04-08T15:50:36.732Z,100466.12
2018-04-08T15:53:04.423Z,100464.41
2018-04-08T15:55:32.016Z,100464.14
2018-04-08T15:57:59.602Z,100463.46
2018-04-08T16:00:27.188Z,100465.95
2018-04-08T16:02:54.771Z,100461.09
2018-04-08T16:05:23.339Z,100460.47
2018-04-08T16:07:50.935Z,100460.34
2018-04-08T16:10:18.522Z,100458.78
2018-04-08T16:12:46.816Z,100463.65
2018-04-08T16:15:14.516Z,100451.11
2018-04-08T16:17:42.115Z,100458.42
2018-04-08T16:20:09.812Z,100459.20
2018-04-08T16:22:37.406Z,100458.49
2018-04-08T16:25:05.063Z,100466.63
2018-04-08T16:27:32.643Z,100468.32
2018-04-08T16:30:00.239Z,100463.63
2018-04-08T16:32:27.885Z,100463.66
2018-04-08T16:34:55.472Z,100459.03
2018-04-08T16:37:23.056Z,100452.70
2018-04-08T16:39:50.737Z,100461.27
2018-04-08T16:42:18.325Z,100449.61
2018-04-08T16:44:45.962Z,100455.66
2018-04-08T16:47:13.548Z,100449.23
2018-04-08T16:49:41.163Z,100459.52
2018-04-08T16:52:08.757Z,100458.70
2018-04-08T16:54:36.380Z,100458.63
2018-04-08T16:57:04.009Z,100456.16
2018-04-08T16:59:31.604Z,100451.41
2018-04-08T17:01:59.272Z,100453.87
2018-04-08T17:04:26.889Z,100446.27
2018-04-08T17:06:54.509Z,100443.52
2018-04-08T17:09:22.263Z,100438.97
2018-04-08T17:11:49.877Z,100438.34
2018-04-08T17:14:17.504Z,100440.59
2018-04-08T17:16:45.091Z,100437.55
2018-04-08T17:19:12.679Z,100438.35
2018-04-08T17:21:40.259Z,100436.45
2018-04-08T17:24:08.575Z,100436.59
2018-04-08T17:26:36.167Z,100439.16
2018-04-08T17:29:03.748Z,100433.42
2018-04-08T17:31:31.356Z,100436.16
2018-04-08T17:33:58.950Z,100439.89
2018-04-08T17:36:26.566Z,100432.98
2018-04-08T17:38:54.159Z,100431.01
2018-04-08T17:41:21.776Z,100441.51
2018-04-08T17:43:49.367Z,100444.98
2018-04-08T17:46:16.958Z,100444.86
2018-04-08T17:48:44.543Z,100450.00
2018-04-08T17:51:12.178Z,100450.70
2018-04-08T17:53:39.768Z,100442.82
2018-04-08T17:56:07.467Z,100451.78
2018-04-08T17:58:35.054Z,100452.70
2018-04-08T18:01:07.451Z,100452.39
2018-04-08T18:03:35.962Z,100447.22
2018-04-08T18:06:03.548Z,100447.88
2018-04-08T18:08:31.718Z,100447.97
2018-04-08T18:10:59.311Z,100450.18
2018-04-08T18:13:26.943Z,100458.30
2018-04-08T18:15:54.563Z,100453.10
2018-04-08T18:18:22.166Z,100459.20
2018-04-08T18:20:49.859Z,100450.80
2018-04-08T18:23:17.522Z,100448.11
2018-04-08T18:25:45.187Z,100464.44
2018-04-08T18:28:12.852Z,100457.80
2018-04-08T18:30:40.494Z,100454.55
2018-04-08T18:33:08.171Z,100455.58
2018-04-08T18:35:35.798Z,100452.60
2018-04-08T18:38:03.766Z,100454.86
2018-04-08T18:40:32.000Z,100459.55
2018-04-08T18:43:01.657Z,100465.33
2018-04-08T18:45:30.382Z,100459.66
2018-04-08T18:48:00.011Z,100457.11
2018-04-08T18:50:30.403Z,100457.99
2018-04-08T18:53:00.193Z,100463.45
2018-04-08T18:55:30.568Z,100458.74
2018-04-08T18:57:59.662Z,100459.59
2018-04-08T19:00:31.742Z,100454.12
2018-04-08T19:03:01.385Z,100455.62
2018-04-08T19:05:29.032Z,100455.19
2018-04-08T19:07:56.628Z,100455.31
2018-04-08T19:10:24.248Z,100455.23
2018-04-08T19:12:51.844Z,100453.63
2018-04-08T19:15:21.533Z,100444.70
2018-04-08T19:17:54.727Z,100449.41
2018-04-08T19:20:22.313Z,100440.16
2018-04-08T19:22:49.904Z,100436.20
2018-04-08T19:25:17.496Z,100435.00
2018-04-08T19:27:45.090Z,100443.19
2018-04-08T19:30:18.192Z,100440.63
2018-04-08T19:32:45.880Z,100443.16
2018-04-08T19:35:13.473Z,100424.75
2018-04-08T19:37:41.104Z,100425.79
2018-04-08T19:40:08.765Z,100424.05
2018-04-08T19:42:36.377Z,100428.09
2018-04-08T19:45:04.037Z,100420.91
2018-04-08T19:47:31.657Z,100416.00
2018-04-08T19:49:59.245Z,100414.96
2018-04-08T19:52:28.572Z,100431.27
2018-04-08T19:55:21.200Z,100431.10
2018-04-08T19:57:48.820Z,100423.23
2018-04-08T20:00:16.407Z,100420.50
2018-04-08T20:02:44.033Z,100420.36
2018-04-08T20:05:11.632Z,100409.89
2018-04-08T20:07:39.244Z,100410.96
2018-04-08T20:10:06.883Z,100409.38
2018-04-08T20:12:34.468Z,100408.23
2018-04-08T20:15:02.090Z,100403.44
2018-04-08T20:17:29.680Z,100399.94
2018-04-08T20:19:57.355Z,100394.62
2018-04-08T20:22:25.508Z,100405.47
2018-04-08T20:24:53.124Z,100402.55
2018-04-08T20:27:20.793Z,100401.61
2018-04-08T20:29:48.379Z,100408.92
2018-04-08T20:32:15.966Z,100405.77
2018-04-08T20:34:43.953Z,100409.25
2018-04-08T20:37:11.790Z,100404.77
2018-04-08T20:39:40.651Z,100407.13
2018-04-08T20:42:08.344Z,100402.35
2018-04-08T20:44:36.400Z,100400.07
2018-04-08T20:47:07.383Z,100400.53
2018-04-08T20:49:35.357Z,100399.74
2018-04-08T20:52:02.997Z,100396.80
2018-04-08T20:54:30.635Z,100398.06
2018-04-08T20:56:58.959Z,100399.65
2018-04-08T20:59:26.547Z,100402.59
2018-04-08T21:01:54.153Z,100401.19
2018-04-08T21:04:22.042Z,100391.36
2018-04-08T21:06:49.640Z,100382.98
2018-04-08T21:09:17.465Z,100389.47
2018-04-08T21:11:45.123Z,100386.06
2018-04-08T21:14:12.742Z,100388.34
2018-04-08T21:16:40.569Z,100385.75
2018-04-08T21:19:08.160Z,100376.07
2018-04-08T21:21:35.748Z,100384.64
2018-04-08T21:24:03.436Z,100391.33
2018-04-08T21:26:43.546Z,100390.70
2018-04-08T21:29:11.291Z,100393.89
2018-04-08T21:31:38.935Z,100389.46
2018-04-08T21:34:06.609Z,100389.20
2018-04-08T21:36:34.391Z,100396.04
2018-04-08T21:39:01.978Z,100407.33
2018-04-08T21:41:29.579Z,100410.27
2018-04-08T21:43:57.273Z,100410.09
2018-04-08T21:46:24.976Z,100413.53
2018-04-08T21:48:52.812Z,100416.55
2018-04-08T21:51:20.395Z,100421.96
2018-04-08T21:53:47.992Z,100422.29
2018-04-08T21:56:15.615Z,100425.09
2018-04-08T21:58:43.264Z,100428.36
2018-04-08T22:01:14.823Z,100430.66
2018-04-08T22:03:42.408Z,100431.22
2018-04-08T22:06:10.018Z,100426.56
2018-04-08T22:08:37.601Z,100425.81
2018-04-08T22:11:05.323Z,100422.73
2018-04-08T22:13:32.899Z,100417.98
2018-04-08T22:16:00.479Z,100419.17
2018-04-08T22:18:28.060Z,100417.59
2018-04-08T22:20:55.736Z,100414.06
2018-04-08T22:23:23.398Z,100412.13
2018-04-08T22:25:50.967Z,100415.30
2018-04-08T22:28:18.591Z,100406.11
2018-04-08T22:30:46.171Z,100404.52
2018-04-08T22:33:13.756Z,100402.08
2018-04-08T22:35:41.339Z,100400.39
2018-04-08T22:38:08.920Z,100397.11
2018-04-08T22:40:37.210Z,100399.30
2018-04-08T22:43:04.795Z,100405.36
2018-04-08T22:45:32.451Z,100404.26
2018-04-08T22:48:00.163Z,100408.12
2018-04-08T22:50:27.751Z,100409.38
2018-04-08T22:52:55.328Z,100403.59
2018-04-08T22:55:22.915Z,100398.38
2018-04-08T22:57:50.495Z,100392.17
2018-04-08T23:00:26.883Z,100402.23
2018-04-08T23:02:54.516Z,100394.49
2018-04-08T23:05:22.173Z,100394.62
2018-04-08T23:07:50.547Z,100380.77
2018-04-08T23:10:18.131Z,100381.34
2018-04-08T23:12:45.735Z,100380.52
2018-04-08T23:15:13.313Z,100379.13
2018-04-08T23:17:40.947Z,100376.02
2018-04-08T23:20:08.532Z,100373.98
2018-04-08T23:22:36.159Z,100365.41
2018-04-08T23:25:03.784Z,100362.47
2018-04-08T23:27:31.395Z,100366.61
2018-04-08T23:29:59.012Z,100370.47
2018-04-08T23:32:26.595Z,100363.24
2018-04-08T23:34:54.212Z,100365.64
2018-04-08T23:37:21.899Z,100353.16
2018-04-08T23:39:49.515Z,100342.82
2018-04-08T23:42:18.055Z,100340.73
2018-04-08T23:44:45.669Z,100331.17
2018-04-08T23:47:13.254Z,100331.35
2018-04-08T23:49:40.874Z,100335.08
2018-04-08T23:52:08.452Z,100337.55
2018-04-08T23:54:36.079Z,100327.27
2018-04-08T23:57:03.706Z,100321.50
2018-04-08T23:59:31.427Z,100331.17
